sensor_id;sensor_type;location;lat;lon;timestamp;P1;durP1;ratioP1;P2;durP2;ratioP2
52974;SDS011;38839;45.186;5.720;2022-10-31T00:00:28;10.65;;;5.43;;
52974;SDS011;38839;45.186;5.720;2022-10-31T00:02:53;10.30;;;5.85;;
52974;SDS011;38839;45.186;5.720;2022-10-31T00:05:19;8.90;;;5.18;;
52974;SDS011;38839;45.186;5.720;2022-10-31T00:07:44;11.85;;;5.85;;
52974;SDS011;38839;45.186;5.720;2022-10-31T00:10:10;12.55;;;5.78;;
52974;SDS011;38839;45.186;5.720;2022-10-31T00:12:35;9.32;;;4.80;;
52974;SDS011;38839;45.186;5.720;2022-10-31T00:15:00;12.80;;;5.00;;
52974;SDS011;38839;45.186;5.720;2022-10-31T00:17:26;11.27;;;5.57;;
52974;SDS011;38839;45.186;5.720;2022-10-31T00:19:51;10.88;;;5.25;;
52974;SDS011;38839;45.186;5.720;2022-10-31T00:22:20;11.13;;;5.80;;
52974;SDS011;38839;45.186;5.720;2022-10-31T00:24:45;11.38;;;5.43;;
52974;SDS011;38839;45.186;5.720;2022-10-31T00:27:11;9.75;;;5.80;;
52974;SDS011;38839;45.186;5.720;2022-10-31T00:29:36;10.60;;;5.22;;
52974;SDS011;38839;45.186;5.720;2022-10-31T00:32:01;7.82;;;4.60;;
52974;SDS011;38839;45.186;5.720;2022-10-31T00:34:27;8.95;;;5.18;;
52974;SDS011;38839;45.186;5.720;2022-10-31T00:36:52;12.15;;;5.60;;
52974;SDS011;38839;45.186;5.720;2022-10-31T00:39:18;6.85;;;4.40;;
52974;SDS011;38839;45.186;5.720;2022-10-31T00:41:43;8.80;;;4.95;;
52974;SDS011;38839;45.186;5.720;2022-10-31T00:44:09;11.48;;;5.13;;
52974;SDS011;38839;45.186;5.720;2022-10-31T00:46:34;7.47;;;4.65;;
52974;SDS011;38839;45.186;5.720;2022-10-31T00:48:59;9.32;;;4.93;;
52974;SDS011;38839;45.186;5.720;2022-10-31T00:51:25;10.82;;;5.35;;
52974;SDS011;38839;45.186;5.720;2022-10-31T00:53:50;11.45;;;4.50;;
52974;SDS011;38839;45.186;5.720;2022-10-31T00:56:16;7.28;;;3.83;;
52974;SDS011;38839;45.186;5.720;2022-10-31T00:58:41;8.57;;;4.50;;
52974;SDS011;38839;45.186;5.720;2022-10-31T01:01:07;8.98;;;4.82;;
52974;SDS011;38839;45.186;5.720;2022-10-31T01:03:32;13.43;;;4.70;;
52974;SDS011;38839;45.186;5.720;2022-10-31T01:05:59;9.93;;;4.45;;
52974;SDS011;38839;45.186;5.720;2022-10-31T01:08:30;11.73;;;4.57;;
52974;SDS011;38839;45.186;5.720;2022-10-31T01:11:10;10.35;;;4.53;;
52974;SDS011;38839;45.186;5.720;2022-10-31T01:13:44;12.23;;;4.18;;
52974;SDS011;38839;45.186;5.720;2022-10-31T01:16:11;9.48;;;4.47;;
52974;SDS011;38839;45.186;5.720;2022-10-31T01:18:38;11.23;;;4.50;;
52974;SDS011;38839;45.186;5.720;2022-10-31T01:21:05;11.10;;;4.43;;
52974;SDS011;38839;45.186;5.720;2022-10-31T01:23:32;8.32;;;4.63;;
52974;SDS011;38839;45.186;5.720;2022-10-31T01:26:02;9.27;;;4.40;;
52974;SDS011;38839;45.186;5.720;2022-10-31T01:28:33;11.55;;;4.32;;
52974;SDS011;38839;45.186;5.720;2022-10-31T01:31:04;8.55;;;4.78;;
52974;SDS011;38839;45.186;5.720;2022-10-31T01:33:32;8.23;;;4.95;;
52974;SDS011;38839;45.186;5.720;2022-10-31T01:35:57;9.40;;;4.95;;
52974;SDS011;38839;45.186;5.720;2022-10-31T01:38:23;11.32;;;4.28;;
52974;SDS011;38839;45.186;5.720;2022-10-31T01:40:49;8.73;;;4.10;;
52974;SDS011;38839;45.186;5.720;2022-10-31T01:43:15;9.65;;;4.35;;
52974;SDS011;38839;45.186;5.720;2022-10-31T01:45:41;6.93;;;3.97;;
52974;SDS011;38839;45.186;5.720;2022-10-31T01:48:15;13.48;;;4.28;;
52974;SDS011;38839;45.186;5.720;2022-10-31T01:50:44;10.82;;;4.20;;
52974;SDS011;38839;45.186;5.720;2022-10-31T01:53:13;5.70;;;4.10;;
52974;SDS011;38839;45.186;5.720;2022-10-31T01:55:42;5.90;;;3.45;;
52974;SDS011;38839;45.186;5.720;2022-10-31T01:58:14;10.32;;;4.65;;
52974;SDS011;38839;45.186;5.720;2022-10-31T02:00:45;9.95;;;4.57;;
52974;SDS011;38839;45.186;5.720;2022-10-31T02:03:13;11.55;;;4.82;;
52974;SDS011;38839;45.186;5.720;2022-10-31T02:05:39;7.75;;;4.20;;
52974;SDS011;38839;45.186;5.720;2022-10-31T02:08:09;12.75;;;4.43;;
52974;SDS011;38839;45.186;5.720;2022-10-31T02:10:39;9.23;;;4.82;;
52974;SDS011;38839;45.186;5.720;2022-10-31T02:13:07;13.43;;;5.10;;
52974;SDS011;38839;45.186;5.720;2022-10-31T02:15:33;10.68;;;4.55;;
52974;SDS011;38839;45.186;5.720;2022-10-31T02:18:02;7.28;;;4.60;;
52974;SDS011;38839;45.186;5.720;2022-10-31T02:20:33;11.73;;;4.90;;
52974;SDS011;38839;45.186;5.720;2022-10-31T02:25:47;10.43;;;4.30;;
52974;SDS011;38839;45.186;5.720;2022-10-31T02:31:16;8.85;;;3.95;;
52974;SDS011;38839;45.186;5.720;2022-10-31T02:36:20;9.27;;;3.97;;
52974;SDS011;38839;45.186;5.720;2022-10-31T02:46:40;8.43;;;4.20;;
52974;SDS011;38839;45.186;5.720;2022-10-31T02:49:18;9.45;;;3.63;;
52974;SDS011;38839;45.186;5.720;2022-10-31T02:51:51;10.68;;;4.25;;
52974;SDS011;38839;45.186;5.720;2022-10-31T02:54:21;10.07;;;4.05;;
52974;SDS011;38839;45.186;5.720;2022-10-31T02:56:48;10.57;;;4.18;;
52974;SDS011;38839;45.186;5.720;2022-10-31T02:59:24;7.28;;;3.70;;
52974;SDS011;38839;45.186;5.720;2022-10-31T03:01:56;9.40;;;4.32;;
52974;SDS011;38839;45.186;5.720;2022-10-31T03:13:01;7.65;;;4.00;;
52974;SDS011;38839;45.186;5.720;2022-10-31T03:16:10;7.07;;;4.27;;
52974;SDS011;38839;45.186;5.720;2022-10-31T03:18:40;11.02;;;4.35;;
52974;SDS011;38839;45.186;5.720;2022-10-31T03:24:11;9.15;;;3.92;;
52974;SDS011;38839;45.186;5.720;2022-10-31T03:26:39;6.82;;;3.72;;
52974;SDS011;38839;45.186;5.720;2022-10-31T03:29:09;9.43;;;4.07;;
52974;SDS011;38839;45.186;5.720;2022-10-31T03:31:40;8.63;;;3.67;;
52974;SDS011;38839;45.186;5.720;2022-10-31T03:34:16;8.80;;;3.65;;
52974;SDS011;38839;45.186;5.720;2022-10-31T03:36:44;7.43;;;3.80;;
52974;SDS011;38839;45.186;5.720;2022-10-31T03:39:14;11.00;;;3.75;;
52974;SDS011;38839;45.186;5.720;2022-10-31T03:41:43;8.82;;;4.28;;
52974;SDS011;38839;45.186;5.720;2022-10-31T03:44:14;8.57;;;4.13;;
52974;SDS011;38839;45.186;5.720;2022-10-31T03:46:42;9.25;;;4.43;;
52974;SDS011;38839;45.186;5.720;2022-10-31T03:49:09;7.65;;;4.22;;
52974;SDS011;38839;45.186;5.720;2022-10-31T03:57:10;9.15;;;4.20;;
52974;SDS011;38839;45.186;5.720;2022-10-31T03:59:44;6.68;;;3.88;;
52974;SDS011;38839;45.186;5.720;2022-10-31T04:02:17;7.03;;;3.97;;
52974;SDS011;38839;45.186;5.720;2022-10-31T04:04:46;10.55;;;5.28;;
52974;SDS011;38839;45.186;5.720;2022-10-31T04:07:14;10.80;;;4.50;;
52974;SDS011;38839;45.186;5.720;2022-10-31T04:09:41;8.45;;;4.32;;
52974;SDS011;38839;45.186;5.720;2022-10-31T04:12:10;9.25;;;4.18;;
52974;SDS011;38839;45.186;5.720;2022-10-31T04:14:40;7.53;;;4.15;;
52974;SDS011;38839;45.186;5.720;2022-10-31T04:17:09;8.68;;;4.50;;
52974;SDS011;38839;45.186;5.720;2022-10-31T04:22:02;7.97;;;4.00;;
52974;SDS011;38839;45.186;5.720;2022-10-31T04:24:28;8.00;;;4.10;;
52974;SDS011;38839;45.186;5.720;2022-10-31T04:26:53;6.07;;;4.05;;
52974;SDS011;38839;45.186;5.720;2022-10-31T04:29:18;7.15;;;4.05;;
52974;SDS011;38839;45.186;5.720;2022-10-31T04:31:44;8.68;;;4.22;;
52974;SDS011;38839;45.186;5.720;2022-10-31T04:34:09;9.90;;;4.57;;
52974;SDS011;38839;45.186;5.720;2022-10-31T04:36:35;9.00;;;4.07;;
52974;SDS011;38839;45.186;5.720;2022-10-31T04:39:00;9.27;;;4.25;;
52974;SDS011;38839;45.186;5.720;2022-10-31T04:41:26;8.80;;;4.03;;
52974;SDS011;38839;45.186;5.720;2022-10-31T04:43:51;9.55;;;3.95;;
52974;SDS011;38839;45.186;5.720;2022-10-31T04:46:19;6.10;;;3.50;;
52974;SDS011;38839;45.186;5.720;2022-10-31T04:48:45;9.55;;;4.00;;
52974;SDS011;38839;45.186;5.720;2022-10-31T04:51:11;8.07;;;3.90;;
52974;SDS011;38839;45.186;5.720;2022-10-31T04:53:36;9.60;;;4.22;;
52974;SDS011;38839;45.186;5.720;2022-10-31T04:56:02;8.55;;;4.10;;
52974;SDS011;38839;45.186;5.720;2022-10-31T04:58:28;10.13;;;4.85;;
52974;SDS011;38839;45.186;5.720;2022-10-31T05:00:53;10.68;;;4.50;;
52974;SDS011;38839;45.186;5.720;2022-10-31T05:03:20;10.02;;;4.10;;
52974;SDS011;38839;45.186;5.720;2022-10-31T05:05:45;8.57;;;3.60;;
52974;SDS011;38839;45.186;5.720;2022-10-31T05:08:11;7.68;;;4.10;;
52974;SDS011;38839;45.186;5.720;2022-10-31T05:10:36;6.53;;;3.63;;
52974;SDS011;38839;45.186;5.720;2022-10-31T05:13:02;7.28;;;4.03;;
52974;SDS011;38839;45.186;5.720;2022-10-31T05:15:29;9.73;;;4.20;;
52974;SDS011;38839;45.186;5.720;2022-10-31T05:17:55;7.45;;;3.80;;
52974;SDS011;38839;45.186;5.720;2022-10-31T05:20:22;7.13;;;3.42;;
52974;SDS011;38839;45.186;5.720;2022-10-31T05:22:50;9.02;;;4.00;;
52974;SDS011;38839;45.186;5.720;2022-10-31T05:25:17;7.22;;;3.70;;
52974;SDS011;38839;45.186;5.720;2022-10-31T05:27:44;8.05;;;3.65;;
52974;SDS011;38839;45.186;5.720;2022-10-31T05:30:12;8.57;;;3.97;;
52974;SDS011;38839;45.186;5.720;2022-10-31T05:32:39;9.70;;;4.32;;
52974;SDS011;38839;45.186;5.720;2022-10-31T05:35:07;10.48;;;4.25;;
52974;SDS011;38839;45.186;5.720;2022-10-31T05:37:36;8.77;;;3.97;;
52974;SDS011;38839;45.186;5.720;2022-10-31T05:40:02;11.68;;;4.07;;
52974;SDS011;38839;45.186;5.720;2022-10-31T05:42:29;5.75;;;3.55;;
52974;SDS011;38839;45.186;5.720;2022-10-31T05:44:54;8.32;;;4.07;;
52974;SDS011;38839;45.186;5.720;2022-10-31T05:47:20;8.68;;;4.03;;
52974;SDS011;38839;45.186;5.720;2022-10-31T05:49:45;7.43;;;4.22;;
52974;SDS011;38839;45.186;5.720;2022-10-31T05:52:10;12.20;;;4.25;;
52974;SDS011;38839;45.186;5.720;2022-10-31T05:54:36;6.95;;;4.40;;
52974;SDS011;38839;45.186;5.720;2022-10-31T05:57:01;7.80;;;4.25;;
52974;SDS011;38839;45.186;5.720;2022-10-31T05:59:27;10.38;;;4.40;;
52974;SDS011;38839;45.186;5.720;2022-10-31T06:01:53;10.00;;;4.03;;
52974;SDS011;38839;45.186;5.720;2022-10-31T06:04:18;9.95;;;4.40;;
52974;SDS011;38839;45.186;5.720;2022-10-31T06:06:43;8.60;;;4.13;;
52974;SDS011;38839;45.186;5.720;2022-10-31T06:09:09;9.82;;;4.72;;
52974;SDS011;38839;45.186;5.720;2022-10-31T06:11:35;7.90;;;4.22;;
52974;SDS011;38839;45.186;5.720;2022-10-31T06:14:00;6.88;;;4.40;;
52974;SDS011;38839;45.186;5.720;2022-10-31T06:16:26;7.65;;;3.97;;
52974;SDS011;38839;45.186;5.720;2022-10-31T06:18:51;10.95;;;4.75;;
52974;SDS011;38839;45.186;5.720;2022-10-31T06:21:17;11.10;;;4.22;;
52974;SDS011;38839;45.186;5.720;2022-10-31T06:23:42;8.73;;;4.95;;
52974;SDS011;38839;45.186;5.720;2022-10-31T06:26:08;9.75;;;4.43;;
52974;SDS011;38839;45.186;5.720;2022-10-31T06:28:36;5.80;;;4.07;;
52974;SDS011;38839;45.186;5.720;2022-10-31T06:31:03;7.32;;;4.30;;
52974;SDS011;38839;45.186;5.720;2022-10-31T06:33:29;10.18;;;4.75;;
52974;SDS011;38839;45.186;5.720;2022-10-31T06:35:54;7.40;;;3.90;;
52974;SDS011;38839;45.186;5.720;2022-10-31T06:38:20;11.55;;;4.40;;
52974;SDS011;38839;45.186;5.720;2022-10-31T06:40:45;10.35;;;4.57;;
52974;SDS011;38839;45.186;5.720;2022-10-31T06:43:10;7.95;;;4.75;;
52974;SDS011;38839;45.186;5.720;2022-10-31T06:45:36;12.00;;;4.68;;
52974;SDS011;38839;45.186;5.720;2022-10-31T06:48:02;14.10;;;4.78;;
52974;SDS011;38839;45.186;5.720;2022-10-31T06:50:28;7.68;;;4.75;;
52974;SDS011;38839;45.186;5.720;2022-10-31T06:52:55;7.65;;;4.35;;
52974;SDS011;38839;45.186;5.720;2022-10-31T06:55:22;9.40;;;4.28;;
52974;SDS011;38839;45.186;5.720;2022-10-31T06:57:50;6.75;;;3.83;;
52974;SDS011;38839;45.186;5.720;2022-10-31T07:00:19;14.82;;;4.60;;
52974;SDS011;38839;45.186;5.720;2022-10-31T07:02:52;8.77;;;3.97;;
52974;SDS011;38839;45.186;5.720;2022-10-31T07:05:22;7.28;;;3.90;;
52974;SDS011;38839;45.186;5.720;2022-10-31T07:07:51;7.63;;;4.00;;
52974;SDS011;38839;45.186;5.720;2022-10-31T07:10:17;6.80;;;4.22;;
52974;SDS011;38839;45.186;5.720;2022-10-31T07:12:43;7.72;;;3.78;;
52974;SDS011;38839;45.186;5.720;2022-10-31T07:15:08;9.40;;;4.15;;
52974;SDS011;38839;45.186;5.720;2022-10-31T07:17:34;10.15;;;3.72;;
52974;SDS011;38839;45.186;5.720;2022-10-31T07:19:59;10.52;;;4.28;;
52974;SDS011;38839;45.186;5.720;2022-10-31T07:22:25;8.00;;;4.30;;
52974;SDS011;38839;45.186;5.720;2022-10-31T07:24:56;7.70;;;4.10;;
52974;SDS011;38839;45.186;5.720;2022-10-31T07:27:22;9.93;;;4.07;;
52974;SDS011;38839;45.186;5.720;2022-10-31T07:29:47;9.10;;;4.25;;
52974;SDS011;38839;45.186;5.720;2022-10-31T07:32:13;7.78;;;4.40;;
52974;SDS011;38839;45.186;5.720;2022-10-31T07:34:38;7.63;;;3.83;;
52974;SDS011;38839;45.186;5.720;2022-10-31T07:37:04;9.73;;;4.15;;
52974;SDS011;38839;45.186;5.720;2022-10-31T07:39:29;13.10;;;4.28;;
52974;SDS011;38839;45.186;5.720;2022-10-31T07:41:57;9.35;;;4.18;;
52974;SDS011;38839;45.186;5.720;2022-10-31T07:44:23;7.63;;;4.05;;
52974;SDS011;38839;45.186;5.720;2022-10-31T07:46:48;6.38;;;4.28;;
52974;SDS011;38839;45.186;5.720;2022-10-31T07:49:14;11.80;;;4.35;;
52974;SDS011;38839;45.186;5.720;2022-10-31T07:51:39;7.93;;;3.78;;
52974;SDS011;38839;45.186;5.720;2022-10-31T07:54:05;6.55;;;3.92;;
52974;SDS011;38839;45.186;5.720;2022-10-31T07:56:30;6.50;;;3.90;;
52974;SDS011;38839;45.186;5.720;2022-10-31T07:58:56;5.85;;;3.83;;
52974;SDS011;38839;45.186;5.720;2022-10-31T08:01:21;10.43;;;4.18;;
52974;SDS011;38839;45.186;5.720;2022-10-31T08:03:47;11.48;;;4.18;;
52974;SDS011;38839;45.186;5.720;2022-10-31T08:06:12;7.45;;;3.70;;
52974;SDS011;38839;45.186;5.720;2022-10-31T08:08:38;11.73;;;4.72;;
52974;SDS011;38839;45.186;5.720;2022-10-31T08:11:03;9.13;;;4.40;;
52974;SDS011;38839;45.186;5.720;2022-10-31T08:13:28;11.82;;;4.47;;
52974;SDS011;38839;45.186;5.720;2022-10-31T08:15:54;7.97;;;4.15;;
52974;SDS011;38839;45.186;5.720;2022-10-31T08:18:20;9.85;;;4.00;;
52974;SDS011;38839;45.186;5.720;2022-10-31T08:20:48;7.72;;;4.35;;
52974;SDS011;38839;45.186;5.720;2022-10-31T08:23:14;8.70;;;4.20;;
52974;SDS011;38839;45.186;5.720;2022-10-31T08:25:40;9.55;;;4.07;;
52974;SDS011;38839;45.186;5.720;2022-10-31T08:28:08;12.02;;;4.40;;
52974;SDS011;38839;45.186;5.720;2022-10-31T08:30:36;6.82;;;3.70;;
52974;SDS011;38839;45.186;5.720;2022-10-31T08:33:08;9.15;;;3.92;;
52974;SDS011;38839;45.186;5.720;2022-10-31T08:35:45;6.45;;;3.90;;
52974;SDS011;38839;45.186;5.720;2022-10-31T08:38:11;6.97;;;3.63;;
52974;SDS011;38839;45.186;5.720;2022-10-31T08:40:37;7.72;;;4.00;;
52974;SDS011;38839;45.186;5.720;2022-10-31T08:43:13;7.65;;;4.82;;
52974;SDS011;38839;45.186;5.720;2022-10-31T08:45:40;6.45;;;3.55;;
52974;SDS011;38839;45.186;5.720;2022-10-31T08:48:10;9.23;;;4.40;;
52974;SDS011;38839;45.186;5.720;2022-10-31T08:50:38;8.00;;;4.05;;
52974;SDS011;38839;45.186;5.720;2022-10-31T08:53:05;11.25;;;5.00;;
52974;SDS011;38839;45.186;5.720;2022-10-31T08:55:36;11.73;;;4.45;;
52974;SDS011;38839;45.186;5.720;2022-10-31T08:58:04;8.00;;;3.72;;
52974;SDS011;38839;45.186;5.720;2022-10-31T09:00:33;11.27;;;4.43;;
52974;SDS011;38839;45.186;5.720;2022-10-31T09:03:04;14.02;;;4.80;;
52974;SDS011;38839;45.186;5.720;2022-10-31T09:05:31;11.52;;;4.10;;
52974;SDS011;38839;45.186;5.720;2022-10-31T09:07:58;8.57;;;4.20;;
52974;SDS011;38839;45.186;5.720;2022-10-31T09:10:25;9.95;;;4.15;;
52974;SDS011;38839;45.186;5.720;2022-10-31T09:13:04;7.90;;;4.00;;
52974;SDS011;38839;45.186;5.720;2022-10-31T09:15:32;12.20;;;4.60;;
52974;SDS011;38839;45.186;5.720;2022-10-31T09:17:59;9.38;;;4.20;;
52974;SDS011;38839;45.186;5.720;2022-10-31T09:20:25;9.57;;;4.50;;
52974;SDS011;38839;45.186;5.720;2022-10-31T09:22:55;9.27;;;4.35;;
52974;SDS011;38839;45.186;5.720;2022-10-31T09:25:25;9.48;;;3.97;;
52974;SDS011;38839;45.186;5.720;2022-10-31T09:27:54;7.20;;;4.25;;
52974;SDS011;38839;45.186;5.720;2022-10-31T09:30:21;12.05;;;4.30;;
52974;SDS011;38839;45.186;5.720;2022-10-31T09:32:46;9.93;;;4.40;;
52974;SDS011;38839;45.186;5.720;2022-10-31T09:35:15;9.73;;;4.65;;
52974;SDS011;38839;45.186;5.720;2022-10-31T09:37:41;7.10;;;4.15;;
52974;SDS011;38839;45.186;5.720;2022-10-31T09:40:06;9.90;;;4.72;;
52974;SDS011;38839;45.186;5.720;2022-10-31T09:42:38;13.38;;;4.90;;
52974;SDS011;38839;45.186;5.720;2022-10-31T09:50:57;16.23;;;4.10;;
52974;SDS011;38839;45.186;5.720;2022-10-31T09:56:13;10.88;;;4.80;;
52974;SDS011;38839;45.186;5.720;2022-10-31T09:58:45;12.68;;;4.53;;
52974;SDS011;38839;45.186;5.720;2022-10-31T10:07:03;7.55;;;4.10;;
52974;SDS011;38839;45.186;5.720;2022-10-31T10:09:36;13.63;;;4.10;;
52974;SDS011;38839;45.186;5.720;2022-10-31T10:23:02;9.30;;;4.15;;
52974;SDS011;38839;45.186;5.720;2022-10-31T10:25:50;9.30;;;4.75;;
52974;SDS011;38839;45.186;5.720;2022-10-31T10:28:23;7.78;;;4.22;;
52974;SDS011;38839;45.186;5.720;2022-10-31T10:33:30;7.68;;;3.90;;
52974;SDS011;38839;45.186;5.720;2022-10-31T10:36:09;7.88;;;4.10;;
52974;SDS011;38839;45.186;5.720;2022-10-31T10:43:50;6.38;;;2.85;;
52974;SDS011;38839;45.186;5.720;2022-10-31T10:46:17;7.30;;;3.10;;
52974;SDS011;38839;45.186;5.720;2022-10-31T10:49:18;4.88;;;2.80;;
52974;SDS011;38839;45.186;5.720;2022-10-31T10:52:37;6.80;;;3.10;;
52974;SDS011;38839;45.186;5.720;2022-10-31T11:00:46;6.30;;;2.65;;
52974;SDS011;38839;45.186;5.720;2022-10-31T11:03:13;7.55;;;2.72;;
52974;SDS011;38839;45.186;5.720;2022-10-31T11:08:05;6.68;;;2.05;;
52974;SDS011;38839;45.186;5.720;2022-10-31T11:10:31;5.15;;;2.80;;
52974;SDS011;38839;45.186;5.720;2022-10-31T11:16:00;5.85;;;2.60;;
52974;SDS011;38839;45.186;5.720;2022-10-31T11:18:34;8.13;;;2.53;;
52974;SDS011;38839;45.186;5.720;2022-10-31T11:21:03;5.75;;;2.45;;
52974;SDS011;38839;45.186;5.720;2022-10-31T11:23:30;6.78;;;2.67;;
52974;SDS011;38839;45.186;5.720;2022-10-31T11:25:58;6.03;;;2.63;;
52974;SDS011;38839;45.186;5.720;2022-10-31T11:28:28;7.20;;;2.80;;
52974;SDS011;38839;45.186;5.720;2022-10-31T11:30:56;6.13;;;2.78;;
52974;SDS011;38839;45.186;5.720;2022-10-31T11:35:57;5.93;;;2.40;;
52974;SDS011;38839;45.186;5.720;2022-10-31T11:38:46;5.40;;;2.63;;
52974;SDS011;38839;45.186;5.720;2022-10-31T11:41:30;7.72;;;2.90;;
52974;SDS011;38839;45.186;5.720;2022-10-31T11:44:02;6.13;;;2.65;;
52974;SDS011;38839;45.186;5.720;2022-10-31T11:52:05;6.03;;;3.17;;
52974;SDS011;38839;45.186;5.720;2022-10-31T11:54:41;7.88;;;2.90;;
52974;SDS011;38839;45.186;5.720;2022-10-31T12:00:21;6.97;;;2.80;;
52974;SDS011;38839;45.186;5.720;2022-10-31T12:02:46;7.55;;;2.97;;
52974;SDS011;38839;45.186;5.720;2022-10-31T12:05:19;10.73;;;3.53;;
52974;SDS011;38839;45.186;5.720;2022-10-31T12:07:52;10.75;;;3.17;;
52974;SDS011;38839;45.186;5.720;2022-10-31T12:10:19;11.60;;;3.45;;
52974;SDS011;38839;45.186;5.720;2022-10-31T12:13:08;9.65;;;3.47;;
52974;SDS011;38839;45.186;5.720;2022-10-31T12:15:51;7.60;;;2.78;;
52974;SDS011;38839;45.186;5.720;2022-10-31T12:18:32;7.57;;;2.95;;
52974;SDS011;38839;45.186;5.720;2022-10-31T12:21:34;6.43;;;2.40;;
52974;SDS011;38839;45.186;5.720;2022-10-31T12:24:31;9.18;;;3.47;;
52974;SDS011;38839;45.186;5.720;2022-10-31T12:30:08;6.72;;;2.60;;
52974;SDS011;38839;45.186;5.720;2022-10-31T12:35:36;5.50;;;2.60;;
52974;SDS011;38839;45.186;5.720;2022-10-31T12:51:50;7.15;;;3.50;;
52974;SDS011;38839;45.186;5.720;2022-10-31T12:54:56;5.97;;;3.08;;
52974;SDS011;38839;45.186;5.720;2022-10-31T13:00:10;6.10;;;3.60;;
52974;SDS011;38839;45.186;5.720;2022-10-31T13:02:56;6.03;;;2.80;;
52974;SDS011;38839;45.186;5.720;2022-10-31T13:11:15;7.65;;;3.30;;
52974;SDS011;38839;45.186;5.720;2022-10-31T13:16:18;8.40;;;3.17;;
52974;SDS011;38839;45.186;5.720;2022-10-31T13:22:06;11.27;;;3.28;;
52974;SDS011;38839;45.186;5.720;2022-10-31T13:24:53;10.73;;;3.50;;
52974;SDS011;38839;45.186;5.720;2022-10-31T13:28:20;12.18;;;2.85;;
52974;SDS011;38839;45.186;5.720;2022-10-31T13:30:50;10.88;;;3.15;;
52974;SDS011;38839;45.186;5.720;2022-10-31T13:33:18;7.95;;;3.17;;
52974;SDS011;38839;45.186;5.720;2022-10-31T13:46:54;7.82;;;3.13;;
52974;SDS011;38839;45.186;5.720;2022-10-31T13:51:53;7.72;;;2.75;;
52974;SDS011;38839;45.186;5.720;2022-10-31T13:54:39;11.43;;;2.92;;
52974;SDS011;38839;45.186;5.720;2022-10-31T13:59:57;10.30;;;3.05;;
52974;SDS011;38839;45.186;5.720;2022-10-31T14:02:26;8.30;;;2.88;;
52974;SDS011;38839;45.186;5.720;2022-10-31T14:07:29;11.27;;;2.80;;
52974;SDS011;38839;45.186;5.720;2022-10-31T14:09:57;6.72;;;2.90;;
52974;SDS011;38839;45.186;5.720;2022-10-31T14:12:29;7.07;;;2.60;;
52974;SDS011;38839;45.186;5.720;2022-10-31T14:14:57;5.73;;;2.73;;
52974;SDS011;38839;45.186;5.720;2022-10-31T14:17:46;7.60;;;2.55;;
52974;SDS011;38839;45.186;5.720;2022-10-31T14:22:40;6.53;;;2.22;;
52974;SDS011;38839;45.186;5.720;2022-10-31T14:27:56;5.38;;;2.92;;
52974;SDS011;38839;45.186;5.720;2022-10-31T14:30:23;6.28;;;2.58;;
52974;SDS011;38839;45.186;5.720;2022-10-31T14:32:54;5.18;;;2.35;;
52974;SDS011;38839;45.186;5.720;2022-10-31T14:35:24;6.57;;;2.30;;
52974;SDS011;38839;45.186;5.720;2022-10-31T14:43:26;7.60;;;2.33;;
52974;SDS011;38839;45.186;5.720;2022-10-31T14:48:57;6.70;;;2.53;;
52974;SDS011;38839;45.186;5.720;2022-10-31T14:51:47;5.78;;;2.30;;
52974;SDS011;38839;45.186;5.720;2022-10-31T14:54:15;11.57;;;2.78;;
52974;SDS011;38839;45.186;5.720;2022-10-31T14:56:49;9.45;;;2.38;;
52974;SDS011;38839;45.186;5.720;2022-10-31T14:59:20;6.78;;;2.40;;
52974;SDS011;38839;45.186;5.720;2022-10-31T15:01:57;4.28;;;2.65;;
52974;SDS011;38839;45.186;5.720;2022-10-31T15:04:34;10.27;;;2.70;;
52974;SDS011;38839;45.186;5.720;2022-10-31T15:10:01;6.40;;;2.13;;
52974;SDS011;38839;45.186;5.720;2022-10-31T15:12:28;6.78;;;2.63;;
52974;SDS011;38839;45.186;5.720;2022-10-31T15:14:55;5.95;;;2.80;;
52974;SDS011;38839;45.186;5.720;2022-10-31T15:17:22;9.00;;;3.00;;
52974;SDS011;38839;45.186;5.720;2022-10-31T15:19:49;6.30;;;2.58;;
52974;SDS011;38839;45.186;5.720;2022-10-31T15:22:16;4.63;;;2.25;;
52974;SDS011;38839;45.186;5.720;2022-10-31T15:24:44;6.60;;;2.25;;
52974;SDS011;38839;45.186;5.720;2022-10-31T15:27:16;6.70;;;2.35;;
52974;SDS011;38839;45.186;5.720;2022-10-31T15:29:49;5.13;;;2.50;;
52974;SDS011;38839;45.186;5.720;2022-10-31T15:32:27;5.68;;;2.45;;
52974;SDS011;38839;45.186;5.720;2022-10-31T15:34:54;6.65;;;2.20;;
52974;SDS011;38839;45.186;5.720;2022-10-31T15:37:22;10.65;;;2.72;;
52974;SDS011;38839;45.186;5.720;2022-10-31T15:39:51;5.55;;;2.15;;
52974;SDS011;38839;45.186;5.720;2022-10-31T15:44:59;6.45;;;2.40;;
52974;SDS011;38839;45.186;5.720;2022-10-31T15:47:26;6.20;;;2.40;;
52974;SDS011;38839;45.186;5.720;2022-10-31T15:49:55;5.80;;;2.43;;
52974;SDS011;38839;45.186;5.720;2022-10-31T15:52:55;4.82;;;2.47;;
52974;SDS011;38839;45.186;5.720;2022-10-31T15:55:18;7.30;;;2.75;;
52974;SDS011;38839;45.186;5.720;2022-10-31T15:57:47;11.57;;;3.03;;
52974;SDS011;38839;45.186;5.720;2022-10-31T16:00:27;8.35;;;2.33;;
52974;SDS011;38839;45.186;5.720;2022-10-31T16:03:29;10.73;;;2.35;;
52974;SDS011;38839;45.186;5.720;2022-10-31T16:08:24;9.95;;;2.53;;
52974;SDS011;38839;45.186;5.720;2022-10-31T16:10:52;7.55;;;2.25;;
52974;SDS011;38839;45.186;5.720;2022-10-31T16:13:20;10.60;;;2.50;;
52974;SDS011;38839;45.186;5.720;2022-10-31T16:16:02;7.97;;;2.80;;
52974;SDS011;38839;45.186;5.720;2022-10-31T16:18:36;6.32;;;2.92;;
52974;SDS011;38839;45.186;5.720;2022-10-31T16:21:03;11.05;;;3.67;;
52974;SDS011;38839;45.186;5.720;2022-10-31T16:23:31;10.15;;;3.05;;
52974;SDS011;38839;45.186;5.720;2022-10-31T16:25:57;9.63;;;2.90;;
52974;SDS011;38839;45.186;5.720;2022-10-31T16:28:23;8.02;;;2.83;;
52974;SDS011;38839;45.186;5.720;2022-10-31T16:30:52;11.03;;;3.10;;
52974;SDS011;38839;45.186;5.720;2022-10-31T16:33:32;5.80;;;2.38;;
52974;SDS011;38839;45.186;5.720;2022-10-31T16:36:01;9.32;;;3.03;;
52974;SDS011;38839;45.186;5.720;2022-10-31T16:38:45;6.43;;;2.50;;
52974;SDS011;38839;45.186;5.720;2022-10-31T16:41:10;14.05;;;2.72;;
52974;SDS011;38839;45.186;5.720;2022-10-31T16:43:37;9.98;;;2.85;;
52974;SDS011;38839;45.186;5.720;2022-10-31T16:46:02;8.68;;;3.15;;
52974;SDS011;38839;45.186;5.720;2022-10-31T16:48:28;10.63;;;2.83;;
52974;SDS011;38839;45.186;5.720;2022-10-31T16:50:54;5.55;;;2.40;;
52974;SDS011;38839;45.186;5.720;2022-10-31T16:53:19;6.40;;;2.38;;
52974;SDS011;38839;45.186;5.720;2022-10-31T16:55:50;5.95;;;2.55;;
52974;SDS011;38839;45.186;5.720;2022-10-31T16:58:38;8.32;;;2.65;;
52974;SDS011;38839;45.186;5.720;2022-10-31T17:01:05;7.70;;;3.60;;
52974;SDS011;38839;45.186;5.720;2022-10-31T17:03:31;8.10;;;3.05;;
52974;SDS011;38839;45.186;5.720;2022-10-31T17:05:57;8.27;;;2.95;;
52974;SDS011;38839;45.186;5.720;2022-10-31T17:08:23;7.82;;;3.08;;
52974;SDS011;38839;45.186;5.720;2022-10-31T17:10:54;8.65;;;3.08;;
52974;SDS011;38839;45.186;5.720;2022-10-31T17:13:22;7.78;;;3.15;;
52974;SDS011;38839;45.186;5.720;2022-10-31T17:15:53;8.73;;;3.15;;
52974;SDS011;38839;45.186;5.720;2022-10-31T17:18:21;8.90;;;3.00;;
52974;SDS011;38839;45.186;5.720;2022-10-31T17:20:47;7.35;;;2.88;;
52974;SDS011;38839;45.186;5.720;2022-10-31T17:23:14;7.20;;;2.88;;
52974;SDS011;38839;45.186;5.720;2022-10-31T17:25:40;7.15;;;3.42;;
52974;SDS011;38839;45.186;5.720;2022-10-31T17:28:10;9.38;;;2.88;;
52974;SDS011;38839;45.186;5.720;2022-10-31T17:30:37;4.90;;;3.08;;
52974;SDS011;38839;45.186;5.720;2022-10-31T17:33:04;7.05;;;2.58;;
52974;SDS011;38839;45.186;5.720;2022-10-31T17:35:30;11.05;;;3.10;;
52974;SDS011;38839;45.186;5.720;2022-10-31T17:37:55;8.38;;;3.40;;
52974;SDS011;38839;45.186;5.720;2022-10-31T17:40:21;9.63;;;3.22;;
52974;SDS011;38839;45.186;5.720;2022-10-31T17:42:50;9.90;;;2.80;;